DLH7DT EGPH-EDDH
Flight info
| Callsign | DLH7DT |
|---|---|
| Flight time | N/A |
| Altitude | 37000 |
| Route | TLA Y96 RENEQ DCT ROCZO DCT OGFON DCT ABFAD DCT OSTOR T904 RIBSO RIBSO7A |
| Aircraft | A320/M-SDE3FGHIRWY/LB1 |
Departure
| Time | 2026-05-07 09:49 |
|---|---|
| Airport | Edinburgh Airport (EGPH) |
Arrival
| Time | N/A |
|---|---|
| Airport | Hamburg Helmut Schmidt Airport (EDDH) |
| Time | Latitude | Longitude | Altitude | Speed | Heading |
|---|---|---|---|---|---|
| 2026-05-07 09:24 | 55.94703 | -3.36618 | 117 ft | 0 kts | 89° |
| 2026-05-07 09:40 | 55.94703 | -3.36644 | 113 ft | 4 kts | 88° |
| 2026-05-07 09:40 | 55.94701 | -3.36692 | 113 ft | 4 kts | 76° |
| 2026-05-07 09:41 | 55.94691 | -3.36731 | 114 ft | 4 kts | 30° |
| 2026-05-07 09:41 | 55.94682 | -3.36738 | 115 ft | 0 kts | 359° |
| 2026-05-07 09:44 | 55.94689 | -3.36738 | 114 ft | 6 kts | 359° |
| 2026-05-07 09:44 | 55.94777 | -3.36770 | 114 ft | 15 kts | 339° |
| 2026-05-07 09:45 | 55.94870 | -3.36785 | 116 ft | 13 kts | 349° |
| 2026-05-07 09:45 | 55.94948 | -3.36822 | 114 ft | 10 kts | 27° |
| 2026-05-07 09:45 | 55.94985 | -3.36724 | 114 ft | 9 kts | 58° |
| 2026-05-07 09:45 | 55.95025 | -3.36607 | 114 ft | 17 kts | 59° |
| 2026-05-07 09:46 | 55.95106 | -3.36368 | 113 ft | 24 kts | 59° |
| 2026-05-07 09:46 | 55.95190 | -3.36113 | 115 ft | 24 kts | 59° |
| 2026-05-07 09:46 | 55.95273 | -3.35871 | 115 ft | 22 kts | 58° |
| 2026-05-07 09:46 | 55.95347 | -3.35652 | 113 ft | 20 kts | 59° |
| 2026-05-07 09:47 | 55.95411 | -3.35463 | 113 ft | 11 kts | 58° |
| 2026-05-07 09:47 | 55.95470 | -3.35414 | 116 ft | 9 kts | 339° |
| 2026-05-07 09:47 | 55.95527 | -3.35470 | 114 ft | 9 kts | 329° |
| 2026-05-07 09:47 | 55.95575 | -3.35545 | 113 ft | 8 kts | 272° |
| 2026-05-07 09:48 | 55.95549 | -3.35627 | 112 ft | 9 kts | 239° |
| 2026-05-07 09:48 | 55.95433 | -3.35963 | 110 ft | 68 kts | 238° |
| 2026-05-07 09:48 | 55.95080 | -3.37006 | 113 ft | 128 kts | 239° |
| 2026-05-07 09:48 | 55.94544 | -3.38588 | 378 ft | 154 kts | 237° |
| 2026-05-07 09:49 | 55.93980 | -3.40215 | 1152 ft | 153 kts | 234° |
| 2026-05-07 09:49 | 55.93409 | -3.41788 | 1875 ft | 154 kts | 233° |
| 2026-05-07 09:49 | 55.92796 | -3.43440 | 2274 ft | 169 kts | 232° |
| 2026-05-07 09:49 | 55.92118 | -3.45268 | 2643 ft | 187 kts | 233° |
| 2026-05-07 09:50 | 55.91359 | -3.47366 | 2970 ft | 214 kts | 235° |
| 2026-05-07 09:50 | 55.90550 | -3.49759 | 3442 ft | 235 kts | 237° |
| 2026-05-07 09:50 | 55.89704 | -3.52307 | 4282 ft | 240 kts | 234° |
| 2026-05-07 09:50 | 55.88497 | -3.54348 | 5174 ft | 243 kts | 210° |
| 2026-05-07 09:51 | 55.86861 | -3.55179 | 6006 ft | 252 kts | 182° |
| 2026-05-07 09:51 | 55.85134 | -3.54407 | 6811 ft | 264 kts | 158° |
| 2026-05-07 09:51 | 55.83455 | -3.53063 | 7597 ft | 266 kts | 163° |
| 2026-05-07 09:51 | 55.81683 | -3.52031 | 7907 ft | 267 kts | 167° |
| 2026-05-07 09:52 | 55.79890 | -3.51141 | 7991 ft | 267 kts | 168° |
| 2026-05-07 09:52 | 55.78136 | -3.50010 | 8146 ft | 275 kts | 153° |
| 2026-05-07 09:52 | 55.76541 | -3.48104 | 9021 ft | 279 kts | 146° |
| 2026-05-07 09:52 | 55.75094 | -3.45763 | 9845 ft | 284 kts | 140° |
| 2026-05-07 09:53 | 55.73655 | -3.43260 | 10299 ft | 300 kts | 140° |
| 2026-05-07 09:53 | 55.72097 | -3.40563 | 10527 ft | 324 kts | 140° |
| 2026-05-07 09:53 | 55.70424 | -3.37700 | 10893 ft | 339 kts | 140° |
| 2026-05-07 09:53 | 55.68711 | -3.34775 | 11549 ft | 344 kts | 139° |
| 2026-05-07 09:54 | 55.66976 | -3.31820 | 12282 ft | 348 kts | 140° |
| 2026-05-07 09:54 | 55.65217 | -3.28839 | 12971 ft | 352 kts | 140° |
| 2026-05-07 09:54 | 55.63439 | -3.25827 | 13659 ft | 356 kts | 140° |
| 2026-05-07 09:54 | 55.61637 | -3.22776 | 14254 ft | 361 kts | 140° |
| 2026-05-07 09:55 | 55.59811 | -3.19686 | 14855 ft | 365 kts | 140° |
| 2026-05-07 09:55 | 55.57964 | -3.16565 | 15439 ft | 369 kts | 140° |
| 2026-05-07 09:55 | 55.56088 | -3.13406 | 15998 ft | 373 kts | 140° |
| 2026-05-07 09:55 | 55.54354 | -3.10012 | 16532 ft | 382 kts | 127° |
| 2026-05-07 09:56 | 55.52919 | -3.06027 | 17080 ft | 387 kts | 125° |
| 2026-05-07 09:56 | 55.51489 | -3.01967 | 17648 ft | 391 kts | 124° |
| 2026-05-07 09:56 | 55.50049 | -2.97848 | 18193 ft | 396 kts | 124° |
| 2026-05-07 09:56 | 55.48597 | -2.93692 | 18671 ft | 399 kts | 124° |
| 2026-05-07 09:57 | 55.47135 | -2.89522 | 19197 ft | 401 kts | 124° |
| 2026-05-07 09:57 | 55.45787 | -2.85180 | 19685 ft | 406 kts | 113° |
| 2026-05-07 09:57 | 55.45005 | -2.80373 | 20168 ft | 410 kts | 105° |
| 2026-05-07 09:57 | 55.44325 | -2.75471 | 20663 ft | 413 kts | 105° |
| 2026-05-07 09:58 | 55.43653 | -2.70541 | 21151 ft | 415 kts | 105° |
| 2026-05-07 09:58 | 55.42981 | -2.65579 | 21594 ft | 419 kts | 105° |
| 2026-05-07 09:58 | 55.42290 | -2.60515 | 21732 ft | 430 kts | 105° |
| 2026-05-07 09:58 | 55.41572 | -2.55326 | 21868 ft | 440 kts | 105° |
| 2026-05-07 09:59 | 55.40834 | -2.50036 | 22006 ft | 449 kts | 105° |
| 2026-05-07 09:59 | 55.40078 | -2.44637 | 22142 ft | 457 kts | 105° |
| 2026-05-07 09:59 | 55.39311 | -2.39162 | 22288 ft | 465 kts | 105° |
| 2026-05-07 09:59 | 55.38526 | -2.33596 | 22421 ft | 472 kts | 105° |
| 2026-05-07 10:00 | 55.37728 | -2.27951 | 22581 ft | 477 kts | 105° |
| 2026-05-07 10:00 | 55.36920 | -2.22255 | 22818 ft | 480 kts | 105° |
| 2026-05-07 10:00 | 55.36107 | -2.16540 | 23081 ft | 483 kts | 105° |
| 2026-05-07 10:00 | 55.35288 | -2.10800 | 23365 ft | 485 kts | 105° |
| 2026-05-07 10:01 | 55.34474 | -2.05118 | 23700 ft | 485 kts | 105° |
| 2026-05-07 10:01 | 55.33651 | -1.99381 | 24057 ft | 484 kts | 105° |
| 2026-05-07 10:01 | 55.32826 | -1.93648 | 24441 ft | 483 kts | 105° |
| 2026-05-07 10:01 | 55.31999 | -1.87945 | 24803 ft | 482 kts | 105° |
| 2026-05-07 10:02 | 55.31446 | -1.84155 | 25065 ft | 481 kts | 105° |
| 2026-05-07 10:02 | 55.30611 | -1.78460 | 25443 ft | 480 kts | 105° |
| 2026-05-07 10:02 | 55.29780 | -1.72790 | 25799 ft | 479 kts | 105° |
| 2026-05-07 10:02 | 55.28941 | -1.67051 | 26177 ft | 479 kts | 105° |
| 2026-05-07 10:03 | 55.28122 | -1.61469 | 26492 ft | 479 kts | 105° |
| 2026-05-07 10:03 | 55.27284 | -1.55795 | 26828 ft | 479 kts | 105° |
| 2026-05-07 10:03 | 55.26445 | -1.50134 | 27148 ft | 480 kts | 105° |
| 2026-05-07 10:03 | 55.25602 | -1.44468 | 27500 ft | 479 kts | 105° |
| 2026-05-07 10:04 | 55.24762 | -1.38850 | 27979 ft | 476 kts | 105° |
| 2026-05-07 10:04 | 55.23917 | -1.33243 | 28385 ft | 475 kts | 105° |
| 2026-05-07 10:04 | 55.23070 | -1.27641 | 28774 ft | 474 kts | 105° |
| 2026-05-07 10:04 | 55.22228 | -1.22073 | 29235 ft | 472 kts | 105° |
| 2026-05-07 10:05 | 55.21386 | -1.16521 | 29584 ft | 472 kts | 105° |
| 2026-05-07 10:05 | 55.20542 | -1.10976 | 29962 ft | 471 kts | 105° |
| 2026-05-07 10:05 | 55.19696 | -1.05425 | 30341 ft | 469 kts | 105° |
| 2026-05-07 10:05 | 55.18852 | -0.99911 | 30646 ft | 470 kts | 105° |
| 2026-05-07 10:06 | 55.18001 | -0.94375 | 30917 ft | 470 kts | 105° |
| 2026-05-07 10:06 | 55.17151 | -0.88852 | 31280 ft | 468 kts | 105° |
| 2026-05-07 10:06 | 55.16302 | -0.83354 | 31608 ft | 468 kts | 105° |
| 2026-05-07 10:06 | 55.15450 | -0.77859 | 31869 ft | 468 kts | 105° |
| 2026-05-07 10:07 | 55.14596 | -0.72364 | 32244 ft | 466 kts | 105° |
| 2026-05-07 10:07 | 55.13745 | -0.66919 | 32585 ft | 465 kts | 105° |
| 2026-05-07 10:07 | 55.12889 | -0.61467 | 32874 ft | 465 kts | 105° |
| 2026-05-07 10:07 | 55.12032 | -0.56017 | 33206 ft | 464 kts | 105° |
| 2026-05-07 10:08 | 55.11176 | -0.50587 | 33562 ft | 463 kts | 105° |
| 2026-05-07 10:08 | 55.10317 | -0.45154 | 33818 ft | 464 kts | 105° |
| 2026-05-07 10:08 | 55.09466 | -0.39785 | 34123 ft | 463 kts | 105° |
| 2026-05-07 10:08 | 55.08608 | -0.34379 | 34436 ft | 461 kts | 106° |
| 2026-05-07 10:09 | 55.07744 | -0.28972 | 34696 ft | 461 kts | 106° |
| 2026-05-07 10:09 | 55.06879 | -0.23572 | 34909 ft | 462 kts | 106° |
| 2026-05-07 10:09 | 55.06013 | -0.18178 | 35229 ft | 459 kts | 106° |
| 2026-05-07 10:09 | 55.05142 | -0.12797 | 35461 ft | 460 kts | 106° |
| 2026-05-07 10:10 | 55.04269 | -0.07428 | 35655 ft | 460 kts | 107° |
| 2026-05-07 10:10 | 55.03390 | -0.02057 | 35920 ft | 458 kts | 107° |
| 2026-05-07 10:10 | 55.02512 | 0.03296 | 36180 ft | 457 kts | 106° |
| 2026-05-07 10:10 | 55.01639 | 0.08636 | 36364 ft | 458 kts | 106° |
| 2026-05-07 10:11 | 55.00767 | 0.13978 | 36589 ft | 457 kts | 107° |
| 2026-05-07 10:11 | 54.99901 | 0.19258 | 36846 ft | 455 kts | 107° |
| 2026-05-07 10:11 | 54.99030 | 0.24553 | 37042 ft | 455 kts | 107° |
| 2026-05-07 10:12 | 54.97264 | 0.35261 | 37094 ft | 462 kts | 107° |
| 2026-05-07 10:12 | 54.95469 | 0.46067 | 37103 ft | 465 kts | 108° |
| 2026-05-07 10:13 | 54.93659 | 0.56862 | 37101 ft | 465 kts | 107° |
| 2026-05-07 10:13 | 54.91834 | 0.67641 | 37106 ft | 464 kts | 107° |
| 2026-05-07 10:14 | 54.90002 | 0.78424 | 37108 ft | 465 kts | 107° |
| 2026-05-07 10:14 | 54.88159 | 0.89199 | 37120 ft | 465 kts | 107° |
| 2026-05-07 10:15 | 54.86305 | 0.99977 | 37120 ft | 465 kts | 108° |
| 2026-05-07 10:15 | 54.84444 | 1.10745 | 37125 ft | 465 kts | 107° |
| 2026-05-07 10:16 | 54.82588 | 1.21430 | 37124 ft | 465 kts | 107° |
| 2026-05-07 10:16 | 54.80710 | 1.32177 | 37130 ft | 465 kts | 107° |
| 2026-05-07 10:17 | 54.78816 | 1.42914 | 37129 ft | 465 kts | 108° |
| 2026-05-07 10:17 | 54.76916 | 1.53643 | 37131 ft | 465 kts | 108° |
| 2026-05-07 10:18 | 54.75002 | 1.64362 | 37129 ft | 465 kts | 108° |
| 2026-05-07 10:18 | 54.73076 | 1.75076 | 37128 ft | 465 kts | 108° |
| 2026-05-07 10:19 | 54.71149 | 1.85769 | 37139 ft | 465 kts | 108° |
| 2026-05-07 10:19 | 54.69219 | 1.96437 | 37138 ft | 464 kts | 108° |
| 2026-05-07 10:20 | 54.67280 | 2.07088 | 37137 ft | 464 kts | 108° |
| 2026-05-07 10:20 | 54.65335 | 2.17724 | 37135 ft | 464 kts | 108° |
| 2026-05-07 10:21 | 54.63386 | 2.28293 | 37143 ft | 463 kts | 108° |
| 2026-05-07 10:21 | 54.61421 | 2.38890 | 37150 ft | 463 kts | 108° |
| 2026-05-07 10:22 | 54.59443 | 2.49459 | 37149 ft | 463 kts | 108° |
| 2026-05-07 10:22 | 54.57461 | 2.60010 | 37151 ft | 462 kts | 108° |
| 2026-05-07 10:23 | 54.55472 | 2.70597 | 37147 ft | 462 kts | 108° |
| 2026-05-07 10:23 | 54.53473 | 2.81119 | 37144 ft | 462 kts | 108° |
| 2026-05-07 10:24 | 54.51465 | 2.91640 | 37146 ft | 461 kts | 108° |
| 2026-05-07 10:24 | 54.49452 | 3.02127 | 37143 ft | 461 kts | 108° |
| 2026-05-07 10:25 | 54.47446 | 3.12539 | 37144 ft | 461 kts | 109° |
| 2026-05-07 10:25 | 54.45417 | 3.23002 | 37130 ft | 461 kts | 108° |
| 2026-05-07 10:26 | 54.43375 | 3.33468 | 37129 ft | 462 kts | 108° |
| 2026-05-07 10:26 | 54.41327 | 3.43939 | 37127 ft | 462 kts | 108° |
| 2026-05-07 10:27 | 54.39263 | 3.54403 | 37127 ft | 462 kts | 108° |
| 2026-05-07 10:27 | 54.37182 | 3.64857 | 37123 ft | 462 kts | 108° |
| 2026-05-07 10:28 | 54.35102 | 3.75298 | 37124 ft | 462 kts | 108° |
| 2026-05-07 10:28 | 54.33014 | 3.85722 | 37114 ft | 463 kts | 108° |
| 2026-05-07 10:29 | 54.30905 | 3.96173 | 37121 ft | 464 kts | 108° |
| 2026-05-07 10:29 | 54.28797 | 4.06630 | 37115 ft | 464 kts | 109° |
| 2026-05-07 10:30 | 54.25612 | 4.22234 | 37118 ft | 464 kts | 109° |
| 2026-05-07 10:30 | 54.24075 | 4.32913 | 37110 ft | 463 kts | 94° |
| 2026-05-07 10:31 | 54.23928 | 4.43900 | 37112 ft | 463 kts | 90° |